createdAt,value
2018-05-11T00:01:47.493Z,17.6
2018-05-11T00:06:41.933Z,17.4
2018-05-11T00:11:36.415Z,17.2
2018-05-11T00:16:31.274Z,17.1
2018-05-11T00:21:25.432Z,16.9
2018-05-11T00:26:20.366Z,16.9
2018-05-11T00:31:14.832Z,16.8
2018-05-11T00:36:09.743Z,16.8
2018-05-11T00:41:04.398Z,16.8
2018-05-11T00:45:59.312Z,16.8
2018-05-11T00:50:54.204Z,16.8
2018-05-11T00:55:49.138Z,16.8
2018-05-11T01:00:44.078Z,16.7
2018-05-11T01:05:38.880Z,16.7
2018-05-11T01:10:33.802Z,16.8
2018-05-11T01:15:29.000Z,16.8
2018-05-11T01:20:23.497Z,16.7
2018-05-11T01:25:18.045Z,16.7
2018-05-11T01:30:12.766Z,16.7
2018-05-11T01:35:07.646Z,16.7
2018-05-11T01:40:02.468Z,16.7
2018-05-11T01:44:56.734Z,16.7
2018-05-11T01:49:51.489Z,16.6
2018-05-11T01:54:45.814Z,16.7
2018-05-11T01:59:40.566Z,16.5
2018-05-11T02:04:35.122Z,16.7
2018-05-11T02:09:29.734Z,16.7
2018-05-11T02:14:24.724Z,16.7
2018-05-11T02:19:19.083Z,16.6
2018-05-11T02:24:13.611Z,16.6
2018-05-11T02:29:08.466Z,16.7
2018-05-11T02:34:03.381Z,16.6
2018-05-11T02:38:58.336Z,16.6
2018-05-11T02:43:53.187Z,16.6
2018-05-11T02:48:48.346Z,16.6
2018-05-11T02:53:43.045Z,16.6
2018-05-11T02:58:37.932Z,16.6
2018-05-11T03:03:32.772Z,16.4
2018-05-11T03:08:27.817Z,16.5
2018-05-11T03:13:22.601Z,16.5
2018-05-11T03:18:17.510Z,16.5
2018-05-11T03:23:12.016Z,16.4
2018-05-11T03:28:07.145Z,16.5
2018-05-11T03:33:01.894Z,16.5
2018-05-11T03:37:56.457Z,16.6
2018-05-11T03:42:51.232Z,16.5
2018-05-11T03:47:45.757Z,16.4
2018-05-11T03:52:40.734Z,16.5
2018-05-11T03:57:35.624Z,16.5
2018-05-11T04:02:29.791Z,16.5
2018-05-11T04:07:24.806Z,16.4
2018-05-11T04:12:19.467Z,16.5
2018-05-11T04:17:14.232Z,16.5
2018-05-11T04:22:09.186Z,16.5
2018-05-11T04:27:04.168Z,16.5
2018-05-11T04:31:59.021Z,16.5
2018-05-11T04:36:54.103Z,16.5
2018-05-11T04:41:48.168Z,16.5
2018-05-11T04:46:43.113Z,16.6
2018-05-11T04:51:37.926Z,16.6
2018-05-11T04:56:32.233Z,16.6
2018-05-11T05:01:27.459Z,16.8
2018-05-11T05:06:22.343Z,16.8
2018-05-11T05:11:16.872Z,16.9
2018-05-11T05:16:11.213Z,16.8
2018-05-11T05:21:06.319Z,16.9
2018-05-11T05:26:01.353Z,17
2018-05-11T05:30:56.032Z,17
2018-05-11T05:35:50.368Z,17
2018-05-11T05:40:44.030Z,17
2018-05-11T05:45:38.984Z,17
2018-05-11T05:50:33.839Z,17
2018-05-11T05:55:28.931Z,17.2
2018-05-11T06:00:23.300Z,17.2
2018-05-11T06:05:18.160Z,17.3
2018-05-11T06:10:12.931Z,17.3
2018-05-11T06:15:07.866Z,17.3
2018-05-11T06:20:02.897Z,17.4
2018-05-11T06:24:57.945Z,17.3
2018-05-11T06:29:52.317Z,17.4
2018-05-11T06:34:47.231Z,17.5
2018-05-11T06:39:41.982Z,17.5
2018-05-11T06:44:36.734Z,17.4
2018-05-11T06:49:31.291Z,17.5
2018-05-11T06:54:26.560Z,17.5
2018-05-11T06:59:21.537Z,17.5
2018-05-11T07:04:15.880Z,17.5
2018-05-11T07:09:10.580Z,17.5
2018-05-11T07:14:05.550Z,17.6
2018-05-11T07:19:00.411Z,17.6
2018-05-11T07:23:55.329Z,17.7
2018-05-11T07:28:49.653Z,17.7
2018-05-11T07:33:44.844Z,17.8
2018-05-11T07:38:39.845Z,17.9
2018-05-11T07:43:32.146Z,17.9
2018-05-11T07:48:26.292Z,18
2018-05-11T07:53:21.213Z,18.2
2018-05-11T07:58:16.325Z,18.3
2018-05-11T08:03:11.331Z,18.3
2018-05-11T08:08:06.403Z,18.4
2018-05-11T08:13:01.268Z,18.5
2018-05-11T08:17:56.377Z,18.6
2018-05-11T08:22:51.437Z,18.6
2018-05-11T08:27:46.055Z,18.7
2018-05-11T08:32:41.208Z,18.9
2018-05-11T08:37:36.533Z,19
2018-05-11T08:42:31.692Z,19.1
2018-05-11T08:47:26.419Z,19.2
2018-05-11T08:52:21.156Z,19.3
2018-05-11T08:57:16.143Z,19.4
2018-05-11T09:02:10.955Z,19.5
2018-05-11T09:07:05.990Z,19.4
2018-05-11T09:12:01.480Z,19.7
2018-05-11T09:16:56.604Z,19.9
2018-05-11T09:21:51.747Z,20
2018-05-11T09:26:46.308Z,19.8
2018-05-11T09:31:40.913Z,20
2018-05-11T09:36:35.526Z,20.2
2018-05-11T09:41:30.710Z,20.2
2018-05-11T09:46:25.463Z,20.3
2018-05-11T09:51:20.253Z,20.2
2018-05-11T09:56:15.122Z,20.2
2018-05-11T10:01:10.327Z,20.5
2018-05-11T10:06:05.295Z,20.9
2018-05-11T10:11:01.121Z,21.2
2018-05-11T10:15:54.716Z,21.3
2018-05-11T10:20:49.800Z,21.2
2018-05-11T10:25:44.596Z,21.4
2018-05-11T10:30:39.701Z,21.6
2018-05-11T10:35:34.575Z,21.8
2018-05-11T10:40:29.497Z,21.7
2018-05-11T10:45:24.208Z,21.8
2018-05-11T10:50:19.387Z,21.8
2018-05-11T10:55:14.541Z,22
2018-05-11T11:00:09.365Z,21.8
2018-05-11T11:05:03.671Z,21.7
2018-05-11T11:09:58.627Z,21.9
2018-05-11T11:14:53.807Z,22
2018-05-11T11:19:48.446Z,22.1
2018-05-11T11:24:43.890Z,22.4
2018-05-11T11:29:39.367Z,22.6
2018-05-11T11:34:34.491Z,22.9
2018-05-11T11:39:29.271Z,22.8
2018-05-11T11:44:24.286Z,23
2018-05-11T11:49:19.338Z,23.2
2018-05-11T11:54:14.603Z,23.5
2018-05-11T11:59:09.641Z,23.9
2018-05-11T12:04:05.122Z,24.1
2018-05-11T12:08:59.951Z,23.7
2018-05-11T12:13:54.312Z,23
2018-05-11T12:18:48.284Z,22.3
2018-05-11T12:23:42.045Z,21.7
2018-05-11T12:28:36.170Z,21.1
2018-05-11T12:33:30.054Z,20.4
2018-05-11T12:38:24.252Z,19.9
2018-05-11T12:43:18.548Z,19.4
2018-05-11T12:48:13.243Z,19
2018-05-11T12:53:07.680Z,18.9
2018-05-11T12:58:02.344Z,18.7
2018-05-11T13:02:56.997Z,18.6
2018-05-11T13:07:51.810Z,18.4
2018-05-11T13:12:46.813Z,18.5
2018-05-11T13:17:41.473Z,18.5
2018-05-11T13:22:35.773Z,18.5
2018-05-11T13:27:30.219Z,18.3
2018-05-11T13:32:24.679Z,18.3
2018-05-11T13:37:18.984Z,18.2
2018-05-11T13:42:14.040Z,18.2
2018-05-11T13:47:08.789Z,18.2
2018-05-11T13:52:03.226Z,18.4
2018-05-11T13:56:58.417Z,18.4
2018-05-11T14:01:52.974Z,18.3
2018-05-11T14:06:47.745Z,18.6
2018-05-11T14:11:43.016Z,18.7
2018-05-11T14:16:38.011Z,18.7
2018-05-11T14:21:32.957Z,18.9
2018-05-11T14:26:27.646Z,18.9
2018-05-11T14:31:22.288Z,18.8
2018-05-11T14:36:17.128Z,18.7
2018-05-11T14:41:11.954Z,18.7
2018-05-11T14:46:06.557Z,18.7
2018-05-11T14:51:01.599Z,19
2018-05-11T14:55:56.431Z,19
2018-05-11T15:00:51.328Z,19.1
2018-05-11T15:05:46.017Z,19.1
2018-05-11T15:10:40.981Z,19.1
2018-05-11T15:15:35.857Z,19
2018-05-11T15:20:30.447Z,19
2018-05-11T15:25:24.834Z,19
2018-05-11T15:30:19.335Z,18.8
2018-05-11T15:35:14.392Z,18.8
2018-05-11T15:40:09.211Z,18.6
2018-05-11T15:45:03.979Z,18.5
2018-05-11T15:49:58.918Z,18.7
2018-05-11T15:54:53.661Z,18.8
2018-05-11T15:59:48.063Z,18.9
2018-05-11T16:04:43.140Z,18.9
2018-05-11T16:09:37.999Z,19
2018-05-11T16:14:32.972Z,19
2018-05-11T16:19:28.034Z,19
2018-05-11T16:24:23.099Z,19.1
2018-05-11T16:29:18.080Z,19.2
2018-05-11T16:34:13.154Z,19.2
2018-05-11T16:39:07.892Z,19.1
2018-05-11T16:44:02.841Z,19
2018-05-11T16:48:57.333Z,19
2018-05-11T16:53:52.563Z,19
2018-05-11T16:58:47.402Z,18.8
2018-05-11T17:03:42.109Z,18.8
2018-05-11T17:08:36.957Z,18.7
2018-05-11T17:13:31.806Z,18.7
2018-05-11T17:18:26.523Z,18.7
2018-05-11T17:23:21.328Z,18.7
2018-05-11T17:28:15.807Z,18.5
2018-05-11T17:33:10.521Z,18.4
2018-05-11T17:38:05.521Z,18.4
2018-05-11T17:42:59.607Z,18.4
2018-05-11T17:47:54.414Z,18.3
2018-05-11T17:52:49.442Z,18.2
2018-05-11T17:57:44.308Z,18.1
2018-05-11T18:02:39.544Z,18.1
2018-05-11T18:07:34.562Z,18.1
2018-05-11T18:12:29.625Z,18.2
2018-05-11T18:17:24.563Z,18
2018-05-11T18:22:19.286Z,18
2018-05-11T18:27:14.216Z,17.9
2018-05-11T18:32:08.730Z,18
2018-05-11T18:37:03.926Z,18
2018-05-11T18:41:58.687Z,17.8
2018-05-11T18:46:53.292Z,17.8
2018-05-11T18:51:48.315Z,17.8
2018-05-11T18:56:43.113Z,17.8
2018-05-11T19:01:37.616Z,17.8
2018-05-11T19:06:32.280Z,17.7
2018-05-11T19:11:26.857Z,17.6
2018-05-11T19:16:22.080Z,17.4
2018-05-11T19:21:16.242Z,17.4
2018-05-11T19:26:10.784Z,17.3
2018-05-11T19:31:05.264Z,17.2
2018-05-11T19:36:00.215Z,17.2
2018-05-11T19:40:55.180Z,17.3
2018-05-11T19:45:49.780Z,17.2
2018-05-11T19:50:44.769Z,17
2018-05-11T19:55:39.056Z,17.1
2018-05-11T20:00:33.601Z,17.1
2018-05-11T20:05:28.155Z,17.1
2018-05-11T20:10:22.763Z,17
2018-05-11T20:15:17.815Z,16.9
2018-05-11T20:20:12.062Z,16.9
2018-05-11T20:25:06.879Z,17
2018-05-11T20:30:01.409Z,16.9
2018-05-11T20:34:56.137Z,16.9
2018-05-11T20:39:50.552Z,16.9
2018-05-11T20:44:45.211Z,16.8
2018-05-11T20:49:39.772Z,16.8
2018-05-11T20:54:34.475Z,16.7
2018-05-11T20:59:29.157Z,16.6
2018-05-11T21:04:24.166Z,16.6
2018-05-11T21:09:19.221Z,16.6
2018-05-11T21:14:14.525Z,16.6
2018-05-11T21:19:09.224Z,16.5
2018-05-11T21:24:03.615Z,16.5
2018-05-11T21:28:58.185Z,16.4
2018-05-11T21:33:53.021Z,16.4
2018-05-11T21:38:47.785Z,16.4
2018-05-11T21:43:42.300Z,16.3
2018-05-11T21:48:36.954Z,16.3
2018-05-11T21:53:31.362Z,16.2
2018-05-11T21:58:26.447Z,16.2
2018-05-11T22:03:20.954Z,16.1
2018-05-11T22:08:16.072Z,16.1
2018-05-11T22:13:10.540Z,16.2
2018-05-11T22:18:05.130Z,16.1
2018-05-11T22:22:59.495Z,16
2018-05-11T22:27:54.184Z,16.1
2018-05-11T22:32:48.909Z,16
2018-05-11T22:37:43.250Z,16
2018-05-11T22:42:37.635Z,16
2018-05-11T22:47:32.438Z,15.9
2018-05-11T22:52:27.100Z,15.9
2018-05-11T22:57:21.837Z,15.9
2018-05-11T23:02:16.680Z,15.8
2018-05-11T23:07:11.567Z,15.8
2018-05-11T23:12:06.424Z,15.7
2018-05-11T23:17:01.296Z,15.8
2018-05-11T23:21:55.604Z,15.8
2018-05-11T23:26:50.769Z,15.7
2018-05-11T23:31:45.300Z,15.8
2018-05-11T23:36:39.973Z,15.8
2018-05-11T23:41:34.435Z,15.6
2018-05-11T23:46:29.409Z,15.5
2018-05-11T23:51:24.123Z,15.5
2018-05-11T23:56:19.265Z,15.5
